ADDS METAR Data INFO
IDs: Format: Raw Decoded Include TAF

Data at: 2112 UTC 20 Nov 2017

METAR for:KDRT (Del Rio Intl, TX, US)
Text:KDRT 202053Z AUTO 14010KT 10SM CLR 20/03 A3000 RMK AO2 SLP152 T02000028 56041
Temperature: 20.0°C ( 68°F)
Dewpoint: 2.8°C ( 37°F) [RH = 32%]
Pressure (altimeter):30.00 inches Hg (1016.0 mb) [Sea level pressure: 1015.2 mb]
Winds:from the SE (140 degrees) at 12 MPH (10 knots; 5.1 m/s)
Visibility:10 or more sm (16+ km)
Ceiling:at least 12,000 feet AGL
Clouds:sky clear below 12,000 feet AGL
QC Flag:automated observation with no human augmentation